Cincinnati Northern Kentucky International Airport
KCVG : rendu visible

Aérodrome :











RETROUVEZ-NOUS SUR...

 
LOGIN :

S'inscrire | Disclaimer

   EN    FR    IT 

 









Légende :    VFR   VFR Marginal   IFR   IFR Intensif   IFR Très Intensif
Visi : 
Plafond : 
>= 8 km
>= 3000ft
5 à 8 km
1000 à 3000 ft
1500m à 5 km
500 à 1000 ft
800 à 1500m
200 à 500 ft
< 800m
< 200 ft
Symboles :   Orages  Brouillard  Fortes neiges  Fortes précipitations  Vent > 20 kt






- Altitude de l'aérodrome : 896 ft
- Code IATA : CVG


KCVG - Cincinnati Northern Kentucky International

DERNIER METAR :
  • 191552Z 13005KT 8SM CLR 08/02 A2981 RMK AO2 SLP096 T00780022

METARs EXPIRÉS :
  • 191452Z 15006KT 7SM FEW180 06/02 A2981 RMK AO2 SLP096 T00560017 50008
  • 191352Z 16006KT 7SM FEW150 SCT180 03/01 A2981 RMK AO2 SLP098 T00330011

TAF KCVG
Valide du 19 à 15h jusqu'au 20 à 18h UTC


191523Z 1915/2018 17005KT P6SM SCT130
FM191900 18006KT P6SM VCSH BKN035
FM192300 22003KT P6SM BKN025
FM200200 28004KT P6SM OVC012
FM201500 25004KT P6SM BKN025



MET'MAP, la Météo Aéronautique d'un coup d'oeil ! - Copyright ORBIFLY Décembre 2007 - Disclaimer

ORBIFLY MET'MAP TEAM :

Programmation & Développement : Alexandra Zaïnal
Conception & Développement : Baudouin d'Aumeries
Co-Programmation & Développement : Marc-Olivier Méhu
Soutien technique & logistique : Manuel Goepfert

Contact : metmap@orbifly.com




SOURCES & CREDITS :

   NOAA       Earth
Advisory